Time;durP1;ratioP1;P1;durP2;ratioP2;P2;SDS_P1;SDS_P2;PMS_P1;PMS_P2;Temp;Humidity;BMP_temperature;BMP_pressure;BME280_temperature;BME280_humidity;BME280_pressure;Samples;Min_cycle;Max_cycle;Signal;HPM_P1;HPM_P2
2021/12/29 00:06:05;;;;;;;43.27;17.43;;;;;;;-1.37;89.70;99333.95;714418;1199;115187;-79
2021/12/29 00:21:08;;;;;;;45.23;16.50;;;;;;;-1.29;89.50;99341.23;714376;1203;113811;-79
2021/12/29 00:36:11;;;;;;;45.70;19.53;;;;;;;-1.22;89.18;99353.69;714254;1199;114848;-79
2021/12/29 00:51:13;;;;;;;41.78;17.60;;;;;;;-1.23;90.22;99361.50;714330;1177;113802;-80
2021/12/29 01:06:15;;;;;;;48.80;19.15;;;;;;;-1.16;89.84;99360.27;714194;1203;114256;-79
2021/12/29 01:21:17;;;;;;;50.93;17.98;;;;;;;-1.09;90.22;99356.44;714022;1206;114939;-79
2021/12/29 01:36:20;;;;;;;51.03;20.10;;;;;;;-1.08;89.84;99354.67;713689;1200;113691;-79
2021/12/29 01:51:22;;;;;;;57.40;21.10;;;;;;;-1.02;90.57;99373.22;714121;1176;113250;-79
2021/12/29 02:06:24;;;;;;;41.60;18.33;;;;;;;-1.01;89.90;99377.44;714094;1204;113879;-80
2021/12/29 02:21:28;;;;;;;49.03;20.35;;;;;;;-0.90;90.60;99356.27;713917;1199;113848;-80
2021/12/29 02:36:31;;;;;;;52.27;20.33;;;;;;;-0.91;89.48;99336.58;713913;1178;113705;-82
2021/12/29 02:51:34;;;;;;;51.65;19.58;;;;;;;-0.93;90.07;99317.79;713985;1199;113799;-82
2021/12/29 03:06:36;;;;;;;43.88;18.68;;;;;;;-0.96;90.85;99327.42;713910;1182;114608;-82
2021/12/29 03:21:40;;;;;;;43.83;17.00;;;;;;;-0.90;90.58;99327.09;714353;1175;114372;-81
2021/12/29 03:36:42;;;;;;;46.00;17.10;;;;;;;-0.98;90.40;99316.40;714751;1199;113882;-82
2021/12/29 03:51:44;;;;;;;47.57;18.47;;;;;;;-0.87;90.59;99321.77;713927;1200;113643;-81
2021/12/29 04:06:47;;;;;;;58.80;20.90;;;;;;;-0.94;90.29;99341.88;713999;1187;113006;-81
2021/12/29 04:21:50;;;;;;;76.90;29.30;;;;;;;-0.81;91.12;99359.23;715279;1200;114534;-82
2021/12/29 04:36:52;;;;;;;139.73;46.90;;;;;;;-0.79;91.72;99354.81;713985;1199;115465;-82
2021/12/29 04:52:03;;;;;;;62.53;22.58;;;;;;;-0.85;91.05;99325.09;714061;1181;114156;-82
2021/12/29 05:22:27;;;;;;;111.65;33.58;;;;;;;-0.92;92.20;99354.69;714050;1200;115398;-81
2021/12/29 05:37:29;;;;;;;62.35;23.43;;;;;;;-0.88;92.69;99359.57;714060;1178;113968;-80
2021/12/29 05:52:31;;;;;;;60.15;24.45;;;;;;;-0.94;92.69;99352.17;713923;1176;113827;-79
2021/12/29 06:07:35;;;;;;;163.33;63.20;;;;;;;-0.88;93.53;99356.18;714117;1200;113643;-81
2021/12/29 06:22:39;;;;;;;61.93;25.20;;;;;;;-0.97;93.89;99367.80;714041;1177;114203;-81
2021/12/29 06:37:43;;;;;;;84.45;30.93;;;;;;;-0.94;94.09;99387.41;714070;1177;113819;-83
2021/12/29 06:52:46;;;;;;;113.95;38.00;;;;;;;-0.98;93.80;99407.34;714137;1185;113691;-81
2021/12/29 07:07:50;;;;;;;120.00;42.07;;;;;;;-1.01;95.30;99417.81;714036;1199;113969;-79
2021/12/29 07:22:52;;;;;;;144.73;44.30;;;;;;;-0.90;95.49;99432.67;713829;1200;113870;-77
2021/12/29 07:37:54;;;;;;;164.47;48.57;;;;;;;-0.80;94.66;99427.88;714225;1189;114092;-78
2021/12/29 07:52:57;;;;;;;215.35;64.10;;;;;;;-0.78;95.08;99433.75;714678;1199;115275;-80
2021/12/29 08:07:59;;;;;;;101.80;35.90;;;;;;;-0.76;94.77;99457.70;714455;1176;113936;-82
2021/12/29 08:23:04;;;;;;;92.33;30.13;;;;;;;-0.68;94.56;99450.38;714160;1199;115655;-75
2021/12/29 08:38:07;;;;;;;250.00;82.10;;;;;;;-0.68;95.22;99464.07;714359;1177;114037;-73
2021/12/29 08:53:10;;;;;;;85.10;33.97;;;;;;;-0.66;94.65;99453.71;714723;1200;115274;-74
2021/12/29 09:08:13;;;;;;;143.23;56.47;;;;;;;-0.62;94.78;99470.66;714419;1203;114025;-72
2021/12/29 09:23:16;;;;;;;256.43;80.10;;;;;;;-0.65;93.86;99485.44;714232;1180;115705;-71
2021/12/29 09:38:20;;;;;;;127.00;44.28;;;;;;;-0.55;93.87;99502.89;714378;1187;114613;-72
2021/12/29 09:53:23;;;;;;;185.23;65.30;;;;;;;-0.36;94.79;99496.72;714544;1184;114005;-73
2021/12/29 10:08:34;;;;;;;76.55;31.63;;;;;;;-0.13;94.51;99492.88;714531;1199;115433;-71
2021/12/29 10:23:41;;;;;;;134.90;45.63;;;;;;;-0.17;95.00;99476.74;714630;1200;114901;-71
2021/12/29 10:39:26;;;;;;;111.77;40.33;;;;;;;-0.01;94.07;99470.72;714876;1199;115527;-72
2021/12/29 10:54:29;;;;;;;84.00;30.97;;;;;;;0.16;93.51;99465.41;714195;1199;114925;-73
2021/12/29 11:09:35;;;;;;;107.10;36.83;;;;;;;0.03;94.86;99467.05;714422;1203;114040;-73
2021/12/29 11:24:41;;;;;;;93.40;34.53;;;;;;;0.01;94.99;99458.55;714702;1186;114780;-77
2021/12/29 11:39:46;;;;;;;109.60;38.40;;;;;;;0.19;94.40;99466.17;722672;1199;114301;-78
2021/12/29 11:55:05;;;;;;;102.63;40.00;;;;;;;0.23;94.32;99496.03;714819;1177;113851;-77
2021/12/29 12:10:12;;;;;;;105.25;37.18;;;;;;;0.12;94.31;99488.88;714667;1199;115401;-79
2021/12/29 12:25:28;;;;;;;110.23;40.15;;;;;;;0.21;95.11;99505.59;714395;1200;115725;-72
2021/12/29 12:40:32;;;;;;;110.47;39.47;;;;;;;0.23;96.10;99486.53;714567;1199;115360;-74
2021/12/29 12:55:51;;;;;;;110.58;39.03;;;;;;;0.36;95.47;99488.38;714592;1200;114116;-73
2021/12/29 13:10:55;;;;;;;105.67;36.37;;;;;;;0.27;96.02;99495.75;714740;1199;114330;-78
2021/12/29 13:25:59;;;;;;;109.78;33.78;;;;;;;0.23;95.72;99508.92;714520;1199;113821;-77
2021/12/29 13:41:05;;;;;;;107.50;33.95;;;;;;;0.25;96.27;99509.66;715162;1204;113913;-80
2021/12/29 13:56:10;;;;;;;125.85;49.28;;;;;;;0.29;96.56;99524.03;714721;1203;114956;-73
2021/12/29 14:11:13;;;;;;;122.05;50.43;;;;;;;0.22;97.46;99522.73;715052;1176;114257;-78
2021/12/29 14:26:16;;;;;;;142.53;45.50;;;;;;;0.21;97.09;99560.63;714495;1200;114479;-78
2021/12/29 14:41:21;;;;;;;185.23;55.57;;;;;;;0.26;98.71;99580.98;714653;1200;113756;-81
2021/12/29 14:56:28;;;;;;;166.50;50.87;;;;;;;0.31;98.73;99603.02;714505;1177;113816;-79
2021/12/29 15:11:33;;;;;;;379.50;96.50;;;;;;;0.26;99.58;99601.63;714934;1200;114346;-80
2021/12/29 15:26:35;;;;;;;170.68;55.53;;;;;;;0.31;100.00;99595.27;715273;1199;114880;-81
2021/12/29 15:41:39;;;;;;;269.63;75.30;;;;;;;0.31;100.00;99615.09;720723;1199;114609;-74
2021/12/29 15:56:42;;;;;;;138.23;42.48;;;;;;;0.29;100.00;99628.09;714670;1189;114185;-74
2021/12/29 16:11:44;;;;;;;165.63;55.58;;;;;;;0.36;100.00;99641.48;714570;1175;114486;-74
2021/12/29 16:26:47;;;;;;;273.45;91.78;;;;;;;0.39;100.00;99643.88;714343;1177;114086;-75
2021/12/29 16:41:49;;;;;;;142.73;44.43;;;;;;;0.40;100.00;99658.45;714666;1175;114310;-74
2021/12/29 16:56:52;;;;;;;181.73;59.20;;;;;;;0.46;100.00;99676.19;714566;1200;115077;-73
2021/12/29 17:11:55;;;;;;;121.73;45.87;;;;;;;0.55;100.00;99672.23;714516;1199;114272;-74
2021/12/29 17:26:58;;;;;;;137.00;45.13;;;;;;;0.57;100.00;99687.64;714697;1200;115408;-81
2021/12/29 17:42:03;;;;;;;139.43;45.03;;;;;;;0.65;100.00;99690.64;714608;1184;114164;-78
2021/12/29 17:57:05;;;;;;;106.48;41.13;;;;;;;0.69;100.00;99699.88;714879;1200;114371;-80
2021/12/29 18:12:08;;;;;;;121.03;42.37;;;;;;;0.68;100.00;99700.78;714486;1199;115115;-74
2021/12/29 18:27:12;;;;;;;270.60;96.03;;;;;;;0.74;100.00;99703.03;714501;1199;114016;-74
2021/12/29 18:42:15;;;;;;;139.57;52.33;;;;;;;0.78;100.00;99695.92;714444;1199;114542;-74
2021/12/29 18:57:17;;;;;;;128.53;44.83;;;;;;;0.86;100.00;99692.91;714384;1177;113830;-74
2021/12/29 19:12:19;;;;;;;112.00;37.50;;;;;;;0.91;100.00;99698.64;714518;1199;114097;-76
2021/12/29 19:27:22;;;;;;;130.85;43.05;;;;;;;0.95;100.00;99698.39;714672;1199;113956;-74
2021/12/29 19:42:25;;;;;;;136.30;42.20;;;;;;;1.10;100.00;99711.35;714373;1176;115854;-75
2021/12/29 19:57:29;;;;;;;105.43;36.58;;;;;;;1.18;100.00;99723.83;714270;1177;113998;-75
2021/12/29 20:12:31;;;;;;;187.17;59.07;;;;;;;1.19;100.00;99700.48;714641;1200;114678;-79
2021/12/29 20:27:35;;;;;;;117.73;38.07;;;;;;;1.30;100.00;99702.43;714630;1177;113851;-80
2021/12/29 20:42:37;;;;;;;204.08;76.13;;;;;;;1.32;100.00;99727.27;714479;1177;114010;-79
2021/12/29 20:57:40;;;;;;;105.55;38.23;;;;;;;1.33;100.00;99741.86;714981;1176;113971;-79
2021/12/29 21:12:43;;;;;;;119.48;41.48;;;;;;;1.38;100.00;99731.23;714984;1177;114059;-74
2021/12/29 21:27:48;;;;;;;124.88;40.60;;;;;;;1.37;100.00;99728.75;715022;1177;114522;-75
2021/12/29 21:42:53;;;;;;;121.03;40.15;;;;;;;1.46;100.00;99743.72;714540;1201;115242;-74
2021/12/29 21:57:55;;;;;;;105.10;33.68;;;;;;;1.49;100.00;99751.28;714724;1177;113839;-74
2021/12/29 22:13:01;;;;;;;116.28;36.95;;;;;;;1.58;100.00;99770.60;715648;1199;114788;-74
2021/12/29 22:28:04;;;;;;;126.25;37.35;;;;;;;1.62;100.00;99790.18;716081;1200;114304;-81
2021/12/29 22:43:09;;;;;;;128.20;39.30;;;;;;;1.71;100.00;99799.16;714271;1176;114601;-80
2021/12/29 22:58:11;;;;;;;131.55;38.85;;;;;;;1.88;100.00;99790.41;714236;1200;114030;-79
2021/12/29 23:13:14;;;;;;;125.88;37.90;;;;;;;2.02;100.00;99798.17;714365;1179;113440;-80
2021/12/29 23:28:17;;;;;;;104.00;34.87;;;;;;;2.12;100.00;99793.27;715185;1203;114146;-80
2021/12/29 23:43:19;;;;;;;118.17;40.07;;;;;;;2.09;100.00;99820.16;714543;1199;114603;-80
2021/12/29 23:58:22;;;;;;;109.43;35.85;;;;;;;2.08;100.00;99818.48;714298;1202;114379;-79
